Time;durP1;ratioP1;P1;durP2;ratioP2;P2;SDS_P1;SDS_P2;PMS_P1;PMS_P2;Temp;Humidity;BMP_temperature;BMP_pressure;BME280_temperature;BME280_humidity;BME280_pressure;Samples;Min_cycle;Max_cycle;Signal;HPM_P1;HPM_P2
2022/08/26 00:02:00;;;;;;;13.93;11.73;;;;;;;;;;10237323;28;20043;-71
2022/08/26 00:07:01;;;;;;;15.63;12.23;;;;;;;;;;10236902;28;20043;-71
2022/08/26 00:12:01;;;;;;;13.00;11.40;;;;;;;;;;10232848;28;20484;-72
2022/08/26 00:17:02;;;;;;;15.68;11.98;;;;;;;;;;10236446;28;20126;-72
2022/08/26 00:22:02;;;;;;;16.60;12.07;;;;;;;;;;10224354;28;20058;-72
2022/08/26 00:27:03;;;;;;;14.18;11.02;;;;;;;;;;10235174;28;20822;-72
2022/08/26 00:32:03;;;;;;;14.77;11.77;;;;;;;;;;10231631;28;20395;-71
2022/08/26 00:37:04;;;;;;;13.82;11.98;;;;;;;;;;10238097;28;20032;-71
2022/08/26 00:42:04;;;;;;;14.38;12.48;;;;;;;;;;10236338;28;20398;-71
2022/08/26 00:47:08;;;;;;;15.87;12.20;;;;;;;;;;10241658;28;20150;-70
2022/08/26 00:52:11;;;;;;;13.85;11.52;;;;;;;;;;10238286;28;20426;-70
2022/08/26 00:57:13;;;;;;;14.45;12.23;;;;;;;;;;10232028;28;20439;-70
2022/08/26 01:02:15;;;;;;;16.60;13.18;;;;;;;;;;10234795;28;20046;-71
2022/08/26 01:07:15;;;;;;;14.80;11.05;;;;;;;;;;10226919;28;20100;-70
2022/08/26 01:12:15;;;;;;;17.87;13.03;;;;;;;;;;10219045;28;20101;-71
2022/08/26 01:17:16;;;;;;;16.17;12.20;;;;;;;;;;10238960;28;20118;-69
2022/08/26 01:22:19;;;;;;;17.17;13.13;;;;;;;;;;10236905;28;20129;-69
2022/08/26 01:27:20;;;;;;;17.42;13.20;;;;;;;;;;10238057;28;20126;-70
2022/08/26 01:32:21;;;;;;;15.93;12.18;;;;;;;;;;10236632;28;20496;-70
2022/08/26 01:37:26;;;;;;;16.65;12.57;;;;;;;;;;10233085;28;20050;-70
2022/08/26 01:42:27;;;;;;;14.93;12.27;;;;;;;;;;10230413;28;21086;-71
2022/08/26 01:47:29;;;;;;;15.48;12.32;;;;;;;;;;10227194;28;20114;-70
2022/08/26 01:52:31;;;;;;;17.63;12.95;;;;;;;;;;10228116;28;20043;-70
2022/08/26 01:57:33;;;;;;;16.95;13.43;;;;;;;;;;10233176;28;20035;-70
2022/08/26 02:02:33;;;;;;;17.77;12.90;;;;;;;;;;10239038;28;20081;-70
2022/08/26 02:07:33;;;;;;;15.47;13.03;;;;;;;;;;10235613;28;20125;-70
2022/08/26 02:12:34;;;;;;;19.17;13.20;;;;;;;;;;10232425;28;20384;-70
2022/08/26 02:17:38;;;;;;;16.38;12.98;;;;;;;;;;10232114;28;20047;-70
2022/08/26 02:22:39;;;;;;;17.13;12.98;;;;;;;;;;10234008;28;20051;-69
2022/08/26 02:27:40;;;;;;;16.13;13.27;;;;;;;;;;10230253;28;20479;-69
2022/08/26 02:32:41;;;;;;;16.27;12.60;;;;;;;;;;10229592;28;20043;-70
2022/08/26 02:37:41;;;;;;;17.83;13.00;;;;;;;;;;10225619;28;20050;-70
2022/08/26 02:42:42;;;;;;;20.83;14.10;;;;;;;;;;10233390;28;20310;-71
2022/08/26 02:47:42;;;;;;;18.33;14.00;;;;;;;;;;10238633;28;20047;-71
2022/08/26 02:52:43;;;;;;;21.40;14.23;;;;;;;;;;10238547;28;20285;-71
2022/08/26 02:57:43;;;;;;;21.83;15.23;;;;;;;;;;10234552;28;20375;-71
2022/08/26 03:02:43;;;;;;;20.23;14.30;;;;;;;;;;10230031;28;20527;-70
2022/08/26 03:07:44;;;;;;;16.10;13.50;;;;;;;;;;10235889;28;20451;-72
2022/08/26 03:12:45;;;;;;;19.38;14.20;;;;;;;;;;10237524;28;20050;-71
2022/08/26 03:17:46;;;;;;;15.05;12.95;;;;;;;;;;10221320;28;20089;-71
2022/08/26 03:22:50;;;;;;;17.15;13.07;;;;;;;;;;10236114;28;20142;-71
2022/08/26 03:27:51;;;;;;;18.58;14.80;;;;;;;;;;10241235;28;20046;-72
2022/08/26 03:32:51;;;;;;;18.88;14.73;;;;;;;;;;10220511;28;20050;-70
2022/08/26 03:37:52;;;;;;;19.02;14.60;;;;;;;;;;10239096;28;20463;-72
2022/08/26 03:42:52;;;;;;;21.67;15.00;;;;;;;;;;10234187;28;20141;-70
2022/08/26 03:47:53;;;;;;;19.60;14.83;;;;;;;;;;10236595;28;20057;-72
2022/08/26 03:52:54;;;;;;;18.15;13.68;;;;;;;;;;10217533;28;20411;-70
2022/08/26 03:57:54;;;;;;;19.02;14.85;;;;;;;;;;10237965;28;20099;-71
2022/08/26 04:02:54;;;;;;;17.25;13.52;;;;;;;;;;10237037;28;20040;-70
2022/08/26 04:07:55;;;;;;;17.17;14.13;;;;;;;;;;10215746;28;20075;-72
2022/08/26 04:12:56;;;;;;;17.83;14.30;;;;;;;;;;10239291;28;20301;-70
2022/08/26 04:17:57;;;;;;;20.45;15.07;;;;;;;;;;10239673;28;20437;-72
2022/08/26 04:22:57;;;;;;;20.92;15.32;;;;;;;;;;10195029;28;20206;-71
2022/08/26 04:27:57;;;;;;;20.25;14.95;;;;;;;;;;10219195;28;20035;-70
2022/08/26 04:32:58;;;;;;;17.43;13.83;;;;;;;;;;10236418;28;20062;-70
2022/08/26 04:37:58;;;;;;;21.77;14.98;;;;;;;;;;10231613;28;20035;-71
2022/08/26 04:42:59;;;;;;;20.77;15.63;;;;;;;;;;10233483;28;20085;-71
2022/08/26 04:47:59;;;;;;;17.92;13.60;;;;;;;;;;10234851;28;20298;-71
2022/08/26 04:52:59;;;;;;;17.83;13.73;;;;;;;;;;10238608;28;20546;-70
2022/08/26 04:58:00;;;;;;;18.92;14.60;;;;;;;;;;10241637;28;20350;-71
2022/08/26 05:03:00;;;;;;;19.10;14.43;;;;;;;;;;10237418;28;20394;-71
2022/08/26 05:08:01;;;;;;;20.97;15.07;;;;;;;;;;10236762;28;20671;-69
2022/08/26 05:13:02;;;;;;;20.27;14.90;;;;;;;;;;10235394;28;20402;-70
2022/08/26 05:18:03;;;;;;;21.75;15.20;;;;;;;;;;10234848;28;20291;-69
2022/08/26 05:23:04;;;;;;;21.05;15.07;;;;;;;;;;10223219;28;20399;-70
2022/08/26 05:28:04;;;;;;;21.15;15.18;;;;;;;;;;10235128;28;20043;-70
2022/08/26 05:33:05;;;;;;;25.63;16.55;;;;;;;;;;10232990;28;20395;-70
2022/08/26 05:38:07;;;;;;;22.95;16.77;;;;;;;;;;10230392;28;20456;-70
2022/08/26 05:43:10;;;;;;;19.20;14.82;;;;;;;;;;10239185;28;20079;-70
2022/08/26 05:48:11;;;;;;;22.08;15.25;;;;;;;;;;10239001;28;20043;-70
2022/08/26 05:53:12;;;;;;;24.40;16.85;;;;;;;;;;10236339;28;20398;-70
2022/08/26 05:58:13;;;;;;;20.00;14.73;;;;;;;;;;10215715;28;20035;-70
2022/08/26 06:03:13;;;;;;;25.83;16.95;;;;;;;;;;10232797;28;20561;-71
2022/08/26 06:08:14;;;;;;;20.57;15.37;;;;;;;;;;10230747;28;20521;-72
2022/08/26 06:13:15;;;;;;;23.73;15.30;;;;;;;;;;10230067;28;20282;-70
2022/08/26 06:18:17;;;;;;;24.40;16.75;;;;;;;;;;10229543;28;20306;-70
2022/08/26 06:28:37;;;;;;;21.05;15.18;;;;;;;;;;10234758;28;19921;-70
2022/08/26 06:33:37;;;;;;;20.80;14.43;;;;;;;;;;10233305;28;20058;-69
2022/08/26 06:38:37;;;;;;;22.95;15.73;;;;;;;;;;10233178;28;21082;-69
2022/08/26 06:43:38;;;;;;;17.53;13.70;;;;;;;;;;10235933;28;20035;-69
2022/08/26 06:48:39;;;;;;;28.70;20.67;;;;;;;;;;10241789;28;20050;-69
2022/08/26 06:53:40;;;;;;;19.00;14.45;;;;;;;;;;10240862;28;20027;-68
2022/08/26 06:58:41;;;;;;;21.40;15.10;;;;;;;;;;10245979;28;20237;-70
2022/08/26 07:03:41;;;;;;;20.27;15.18;;;;;;;;;;10232520;28;20051;-67
2022/08/26 07:08:42;;;;;;;25.55;16.40;;;;;;;;;;10242692;28;20036;-67
2022/08/26 07:13:42;;;;;;;25.13;16.00;;;;;;;;;;10243783;28;20043;-69
2022/08/26 07:18:43;;;;;;;21.98;14.23;;;;;;;;;;10220298;28;20147;-67
2022/08/26 07:23:44;;;;;;;20.48;14.25;;;;;;;;;;10228017;28;20070;-67
2022/08/26 07:28:46;;;;;;;20.95;13.30;;;;;;;;;;10241127;28;20523;-68
2022/08/26 07:33:46;;;;;;;22.17;15.88;;;;;;;;;;10220187;28;20086;-69
2022/08/26 07:38:47;;;;;;;23.00;13.90;;;;;;;;;;10238764;28;20163;-70
2022/08/26 07:43:48;;;;;;;19.25;13.77;;;;;;;;;;10238897;28;20047;-68
2022/08/26 07:48:49;;;;;;;20.10;12.48;;;;;;;;;;10227740;28;20471;-68
2022/08/26 07:53:49;;;;;;;22.33;12.45;;;;;;;;;;10240242;28;20122;-69
2022/08/26 07:58:51;;;;;;;21.73;12.63;;;;;;;;;;10240393;28;20126;-68
2022/08/26 08:03:53;;;;;;;18.15;11.52;;;;;;;;;;10236162;28;20071;-68
2022/08/26 08:08:54;;;;;;;20.03;14.50;;;;;;;;;;10238962;28;20043;-69
2022/08/26 08:13:54;;;;;;;16.98;11.77;;;;;;;;;;10240880;28;20472;-68
2022/08/26 08:18:56;;;;;;;18.13;12.43;;;;;;;;;;10236351;28;20066;-69
2022/08/26 08:23:56;;;;;;;20.77;13.60;;;;;;;;;;10234351;28;20061;-68
2022/08/26 08:28:57;;;;;;;16.33;11.68;;;;;;;;;;10236893;28;20368;-69
2022/08/26 08:33:57;;;;;;;18.58;11.95;;;;;;;;;;10227663;28;20053;-69
2022/08/26 08:38:58;;;;;;;17.48;12.68;;;;;;;;;;10235380;28;20039;-69
2022/08/26 08:43:59;;;;;;;18.07;10.60;;;;;;;;;;10241364;28;20027;-68
2022/08/26 08:49:00;;;;;;;20.17;11.60;;;;;;;;;;10235954;28;20109;-68
2022/08/26 08:54:01;;;;;;;13.85;10.48;;;;;;;;;;10229121;28;20403;-68
2022/08/26 08:59:05;;;;;;;15.60;10.00;;;;;;;;;;10218817;28;20384;-69
2022/08/26 09:04:12;;;;;;;19.73;10.05;;;;;;;;;;10234413;28;20054;-68
2022/08/26 09:09:20;;;;;;;22.98;10.80;;;;;;;;;;10229203;28;20340;-68
2022/08/26 09:14:21;;;;;;;16.90;9.98;;;;;;;;;;10235530;28;20031;-69
2022/08/26 09:19:22;;;;;;;17.83;11.18;;;;;;;;;;10233830;28;20118;-68
2022/08/26 09:24:23;;;;;;;21.27;10.40;;;;;;;;;;10224155;28;20460;-67
2022/08/26 09:29:25;;;;;;;18.37;9.73;;;;;;;;;;10236242;28;20039;-70
2022/08/26 09:34:26;;;;;;;18.17;10.85;;;;;;;;;;10234222;28;20044;-69
2022/08/26 09:39:32;;;;;;;16.63;9.67;;;;;;;;;;10235054;28;20035;-69
2022/08/26 09:44:32;;;;;;;17.23;9.88;;;;;;;;;;10227721;28;20082;-70
2022/08/26 09:49:34;;;;;;;21.17;13.13;;;;;;;;;;10240635;28;20142;-69
2022/08/26 09:54:35;;;;;;;;;;;;;;;;;;10229578;28;20040;-70
2022/08/26 09:59:35;;;;;;;16.77;10.37;;;;;;;;;;10233760;28;19914;-70
2022/08/26 10:04:36;;;;;;;15.30;10.00;;;;;;;;;;10239354;28;20062;-69
2022/08/26 10:09:39;;;;;;;15.90;9.03;;;;;;;;;;10236014;28;20047;-69
2022/08/26 10:14:45;;;;;;;16.67;9.98;;;;;;;;;;10235485;28;20067;-71
2022/08/26 10:19:50;;;;;;;13.30;8.43;;;;;;;;;;10232319;28;20051;-70
2022/08/26 10:24:56;;;;;;;13.73;8.95;;;;;;;;;;10232266;28;20155;-69
2022/08/26 10:30:00;;;;;;;17.85;9.73;;;;;;;;;;10226639;28;20031;-69
2022/08/26 10:35:01;;;;;;;14.90;8.98;;;;;;;;;;10238059;28;20043;-69
2022/08/26 10:40:08;;;;;;;12.60;8.33;;;;;;;;;;10225061;28;20053;-69
2022/08/26 10:45:09;;;;;;;14.00;8.75;;;;;;;;;;10237211;28;20848;-69
2022/08/26 10:50:09;;;;;;;18.70;9.10;;;;;;;;;;10223757;28;20101;-71
2022/08/26 10:55:19;;;;;;;12.10;7.70;;;;;;;;;;10220585;28;20035;-70
2022/08/26 11:06:06;;;;;;;12.80;7.40;;;;;;;;;;10228675;28;20106;-68
2022/08/26 11:11:07;;;;;;;11.73;6.30;;;;;;;;;;10219452;28;20039;-69
2022/08/26 11:16:07;;;;;;;10.70;6.57;;;;;;;;;;10230831;28;20428;-70
2022/08/26 11:21:27;;;;;;;12.87;6.80;;;;;;;;;;10231301;28;20048;-70
2022/08/26 11:26:36;;;;;;;11.57;7.28;;;;;;;;;;10234027;28;20155;-72
2022/08/26 11:31:36;;;;;;;12.70;6.50;;;;;;;;;;10239168;28;20483;-69
2022/08/26 11:36:46;;;;;;;13.07;7.07;;;;;;;;;;10243138;28;20042;-69
2022/08/26 11:41:48;;;;;;;15.35;6.63;;;;;;;;;;10239402;28;20130;-70
2022/08/26 11:46:53;;;;;;;13.38;6.53;;;;;;;;;;10237786;28;20514;-71
2022/08/26 11:52:10;;;;;;;12.40;6.05;;;;;;;;;;10241629;28;20568;-70
2022/08/26 11:57:11;;;;;;;11.23;6.30;;;;;;;;;;10234822;28;20883;-69
2022/08/26 12:02:11;;;;;;;;;;;;;;;;;;10219105;28;21247;-71
2022/08/26 12:07:12;;;;;;;9.80;6.60;;;;;;;;;;10233480;28;19927;-71
2022/08/26 12:12:17;;;;;;;8.47;5.93;;;;;;;;;;10236639;28;20537;-70
2022/08/26 12:17:24;;;;;;;10.18;5.85;;;;;;;;;;10238504;28;20496;-70
2022/08/26 12:22:26;;;;;;;10.05;6.30;;;;;;;;;;10239002;28;20115;-71
2022/08/26 12:27:31;;;;;;;12.85;5.65;;;;;;;;;;10234801;28;20035;-71
2022/08/26 12:32:31;;;;;;;9.52;5.72;;;;;;;;;;10231932;28;20154;-70
2022/08/26 12:37:33;;;;;;;12.50;7.20;;;;;;;;;;10220111;28;20039;-70
2022/08/26 12:42:40;;;;;;;11.25;6.65;;;;;;;;;;10238601;28;20043;-71
2022/08/26 12:47:41;;;;;;;9.35;5.07;;;;;;;;;;10238426;28;20411;-72
2022/08/26 12:52:54;;;;;;;9.68;4.68;;;;;;;;;;10231119;28;20122;-71
2022/08/26 12:58:20;;;;;;;9.10;4.97;;;;;;;;;;10242786;28;20036;-71
2022/08/26 13:03:32;;;;;;;9.55;5.22;;;;;;;;;;10241794;28;20035;-70
2022/08/26 13:08:33;;;;;;;9.95;5.18;;;;;;;;;;10238159;28;20494;-71
2022/08/26 13:13:36;;;;;;;11.43;5.83;;;;;;;;;;10237618;28;20126;-71
2022/08/26 13:18:36;;;;;;;11.05;6.78;;;;;;;;;;10233274;28;20039;-71
2022/08/26 13:23:37;;;;;;;12.50;6.43;;;;;;;;;;10235885;28;20043;-70
2022/08/26 13:28:37;;;;;;;15.37;12.57;;;;;;;;;;10229812;28;20057;-70
2022/08/26 13:33:38;;;;;;;13.80;5.90;;;;;;;;;;10240725;28;20031;-70
2022/08/26 13:38:39;;;;;;;10.15;6.05;;;;;;;;;;10223428;28;20114;-71
2022/08/26 13:43:39;;;;;;;8.97;6.30;;;;;;;;;;10217457;28;20454;-68
2022/08/26 13:48:40;;;;;;;11.50;6.23;;;;;;;;;;10241259;28;20117;-71
2022/08/26 13:53:40;;;;;;;12.23;7.27;;;;;;;;;;10219085;28;20043;-72
2022/08/26 13:58:40;;;;;;;11.73;6.73;;;;;;;;;;10216536;28;20131;-72
2022/08/26 14:03:41;;;;;;;9.97;5.80;;;;;;;;;;10232532;28;20047;-73
2022/08/26 14:08:42;;;;;;;13.00;7.18;;;;;;;;;;10236550;28;20046;-71
2022/08/26 14:13:42;;;;;;;9.87;5.50;;;;;;;;;;10233706;28;20089;-72
2022/08/26 14:18:43;;;;;;;9.67;6.07;;;;;;;;;;10235438;28;20452;-72
2022/08/26 14:23:43;;;;;;;6.80;5.80;;;;;;;;;;10224460;28;20044;-72
2022/08/26 14:28:44;;;;;;;13.43;5.23;;;;;;;;;;10238026;28;20035;-73
2022/08/26 14:33:44;;;;;;;11.13;5.80;;;;;;;;;;10244557;28;20031;-79
2022/08/26 14:38:45;;;;;;;9.15;5.90;;;;;;;;;;10238723;28;20050;-78
2022/08/26 14:43:47;;;;;;;12.18;8.10;;;;;;;;;;10231785;28;20051;-78
2022/08/26 14:48:49;;;;;;;9.35;5.75;;;;;;;;;;10239770;28;20480;-77
2022/08/26 14:59:09;;;;;;;8.60;5.50;;;;;;;;;;10232853;28;20546;-76
2022/08/26 15:04:09;;;;;;;9.43;5.57;;;;;;;;;;10253627;28;20107;-77
2022/08/26 15:09:10;;;;;;;8.98;5.15;;;;;;;;;;10241582;28;20062;-78
2022/08/26 15:14:11;;;;;;;9.88;6.30;;;;;;;;;;10246050;28;20050;-77
2022/08/26 15:19:13;;;;;;;9.98;6.55;;;;;;;;;;10248095;28;20047;-78
2022/08/26 15:24:17;;;;;;;10.05;6.55;;;;;;;;;;10232483;28;20042;-81
2022/08/26 15:29:18;;;;;;;10.23;6.30;;;;;;;;;;10247477;28;20058;-79
2022/08/26 15:34:18;;;;;;;8.85;6.00;;;;;;;;;;10245378;28;20040;-79
2022/08/26 15:39:20;;;;;;;11.43;7.70;;;;;;;;;;10230340;28;20034;-79
2022/08/26 15:44:21;;;;;;;7.82;5.03;;;;;;;;;;10233807;28;20046;-79
2022/08/26 15:49:21;;;;;;;7.80;5.45;;;;;;;;;;10230975;28;20050;-78
2022/08/26 15:54:22;;;;;;;8.95;5.93;;;;;;;;;;10246711;28;20039;-80
2022/08/26 15:59:23;;;;;;;8.35;5.78;;;;;;;;;;10249492;28;20054;-78
2022/08/26 16:04:24;;;;;;;7.07;5.60;;;;;;;;;;10245599;28;20402;-80
2022/08/26 16:09:25;;;;;;;11.85;6.20;;;;;;;;;;10241955;28;20047;-82
2022/08/26 16:14:27;;;;;;;11.35;6.63;;;;;;;;;;10243458;28;20039;-79
2022/08/26 16:19:27;;;;;;;9.20;6.78;;;;;;;;;;10226258;28;20094;-78
2022/08/26 16:24:28;;;;;;;11.05;7.82;;;;;;;;;;10245856;28;20043;-78
2022/08/26 16:29:30;;;;;;;14.70;9.50;;;;;;;;;;10235896;28;20063;-78
2022/08/26 16:34:30;;;;;;;13.13;9.13;;;;;;;;;;10241778;28;20063;-79
2022/08/26 16:39:31;;;;;;;18.03;11.37;;;;;;;;;;10245135;28;20476;-78
2022/08/26 16:44:43;;;;;;;16.10;11.80;;;;;;;;;;10241773;28;20043;-78
2022/08/26 16:49:46;;;;;;;17.98;13.48;;;;;;;;;;10247514;28;20079;-79
2022/08/26 16:54:49;;;;;;;20.95;13.98;;;;;;;;;;10243242;28;20051;-80
2022/08/26 16:59:49;;;;;;;22.55;14.45;;;;;;;;;;10243521;28;20420;-79
2022/08/26 17:04:50;;;;;;;20.88;14.23;;;;;;;;;;10249369;28;20122;-80
2022/08/26 17:09:50;;;;;;;19.73;13.57;;;;;;;;;;10247237;28;20131;-79
2022/08/26 17:14:51;;;;;;;23.88;15.10;;;;;;;;;;10248820;28;21159;-78
2022/08/26 17:19:51;;;;;;;20.42;13.45;;;;;;;;;;10238939;28;20225;-78
2022/08/26 17:24:52;;;;;;;22.20;12.77;;;;;;;;;;10239292;28;20039;-79
2022/08/26 17:29:52;;;;;;;14.90;11.80;;;;;;;;;;10242227;28;20459;-79
2022/08/26 17:34:52;;;;;;;15.80;11.30;;;;;;;;;;10240243;28;20040;-78
2022/08/26 17:39:53;;;;;;;18.17;11.45;;;;;;;;;;10248061;28;20550;-79
2022/08/26 17:44:53;;;;;;;17.13;12.52;;;;;;;;;;10242786;28;20057;-79
2022/08/26 17:49:54;;;;;;;18.50;12.35;;;;;;;;;;10244999;28;20031;-78
2022/08/26 17:54:55;;;;;;;20.50;12.43;;;;;;;;;;10226582;28;20119;-79
2022/08/26 17:59:55;;;;;;;15.63;11.10;;;;;;;;;;10240060;28;20046;-80
2022/08/26 18:04:56;;;;;;;19.23;13.75;;;;;;;;;;10244653;28;20100;-80
2022/08/26 18:09:56;;;;;;;19.20;13.80;;;;;;;;;;10261564;28;20431;-78
2022/08/26 18:14:57;;;;;;;17.33;12.43;;;;;;;;;;10262298;28;20035;-80
2022/08/26 18:19:57;;;;;;;16.00;11.80;;;;;;;;;;10242121;28;20298;-79
2022/08/26 18:24:59;;;;;;;15.35;11.60;;;;;;;;;;10213975;28;20666;-80
2022/08/26 18:30:02;;;;;;;17.17;12.20;;;;;;;;;;10216468;28;20039;-80
2022/08/26 18:35:03;;;;;;;17.42;12.93;;;;;;;;;;10250047;28;20138;-79
2022/08/26 18:40:04;;;;;;;15.50;12.45;;;;;;;;;;10251511;28;20031;-78
2022/08/26 18:45:06;;;;;;;19.45;13.60;;;;;;;;;;10224190;28;20087;-79
2022/08/26 18:50:07;;;;;;;16.65;12.13;;;;;;;;;;10252632;28;20122;-80
2022/08/26 18:55:07;;;;;;;17.23;12.98;;;;;;;;;;10255316;28;20126;-78
2022/08/26 19:00:09;;;;;;;17.27;13.05;;;;;;;;;;10265649;28;20442;-78
2022/08/26 19:05:09;;;;;;;17.47;12.77;;;;;;;;;;10233610;28;20051;-78
2022/08/26 19:10:10;;;;;;;18.97;13.57;;;;;;;;;;10253660;28;20143;-78
2022/08/26 19:15:12;;;;;;;17.95;12.48;;;;;;;;;;10226366;28;20298;-79
2022/08/26 19:20:13;;;;;;;15.68;11.88;;;;;;;;;;10223026;28;20035;-78
2022/08/26 19:25:13;;;;;;;17.38;12.20;;;;;;;;;;10239186;28;20043;-77
2022/08/26 19:30:14;;;;;;;14.18;11.40;;;;;;;;;;10220409;28;20050;-76
2022/08/26 19:35:14;;;;;;;18.48;12.43;;;;;;;;;;10243151;28;20050;-81
2022/08/26 19:40:15;;;;;;;17.33;12.27;;;;;;;;;;10252468;28;20606;-79
2022/08/26 19:45:15;;;;;;;15.27;11.77;;;;;;;;;;10237618;28;20067;-79
2022/08/26 19:50:16;;;;;;;17.30;12.63;;;;;;;;;;10246773;28;20564;-79
2022/08/26 19:55:17;;;;;;;18.75;13.75;;;;;;;;;;10239540;28;20081;-79
2022/08/26 20:00:19;;;;;;;19.23;14.02;;;;;;;;;;10242506;28;20511;-78
2022/08/26 20:05:20;;;;;;;;;;;;;;;;;;10248472;28;20483;-79
2022/08/26 20:10:21;;;;;;;23.70;16.60;;;;;;;;;;10245092;28;19965;-79
2022/08/26 20:15:22;;;;;;;20.40;15.23;;;;;;;;;;10249698;28;20821;-80
2022/08/26 20:25:41;;;;;;;20.95;16.55;;;;;;;;;;10260596;28;20058;-79
2022/08/26 20:30:42;;;;;;;21.60;15.98;;;;;;;;;;10263004;28;20036;-80
2022/08/26 20:35:42;;;;;;;17.33;13.85;;;;;;;;;;10236824;28;20456;-81
2022/08/26 20:40:42;;;;;;;19.93;13.83;;;;;;;;;;10260830;28;20111;-79
2022/08/26 20:45:43;;;;;;;16.33;12.80;;;;;;;;;;10254361;28;20047;-82
2022/08/26 20:50:44;;;;;;;16.00;13.02;;;;;;;;;;10256249;28;20138;-79
2022/08/26 20:55:45;;;;;;;18.05;12.65;;;;;;;;;;10247509;28;20047;-79
2022/08/26 21:00:45;;;;;;;18.48;13.13;;;;;;;;;;10259074;28;20034;-80
2022/08/26 21:05:47;;;;;;;15.75;12.75;;;;;;;;;;10279031;28;20031;-79
2022/08/26 21:10:49;;;;;;;16.17;12.02;;;;;;;;;;10275134;28;20043;-78
2022/08/26 21:15:53;;;;;;;15.20;11.43;;;;;;;;;;10246349;28;20053;-79
2022/08/26 21:20:55;;;;;;;14.80;11.27;;;;;;;;;;10246889;28;20053;-80
2022/08/26 21:26:11;;;;;;;12.23;10.90;;;;;;;;;;10478619;28;20415;-80
2022/08/26 21:31:14;;;;;;;13.63;10.93;;;;;;;;;;10444743;28;20041;-78
2022/08/26 21:36:14;;;;;;;18.40;12.15;;;;;;;;;;10455627;28;20037;-78
2022/08/26 21:41:21;;;;;;;13.23;10.87;;;;;;;;;;10439460;28;20044;-79
2022/08/26 21:46:22;;;;;;;13.60;9.95;;;;;;;;;;10448425;28;20357;-78
2022/08/26 21:51:23;;;;;;;13.65;10.00;;;;;;;;;;10446950;28;20043;-78
2022/08/26 21:56:25;;;;;;;14.95;9.18;;;;;;;;;;10450447;28;20573;-78
2022/08/26 22:01:26;;;;;;;13.93;8.50;;;;;;;;;;10456329;28;20053;-79
2022/08/26 22:06:28;;;;;;;10.68;7.88;;;;;;;;;;10446260;28;20037;-78
2022/08/26 22:11:30;;;;;;;11.60;8.02;;;;;;;;;;10457008;28;20402;-77
2022/08/26 22:16:30;;;;;;;14.75;10.75;;;;;;;;;;10434507;28;20119;-78
2022/08/26 22:21:31;;;;;;;11.43;8.38;;;;;;;;;;10451414;28;20459;-78
2022/08/26 22:26:32;;;;;;;11.93;8.30;;;;;;;;;;10433588;28;20423;-78
2022/08/26 22:31:32;;;;;;;10.88;8.38;;;;;;;;;;10445750;28;20033;-77
2022/08/26 22:36:33;;;;;;;12.02;8.00;;;;;;;;;;10427152;28;20539;-78
2022/08/26 22:41:34;;;;;;;10.30;8.00;;;;;;;;;;10416046;28;20077;-79
2022/08/26 22:46:35;;;;;;;10.43;7.47;;;;;;;;;;10428208;28;20367;-79
2022/08/26 22:51:35;;;;;;;9.07;7.53;;;;;;;;;;10425607;28;20029;-80
2022/08/26 22:56:36;;;;;;;14.47;9.13;;;;;;;;;;10446604;28;20089;-79
2022/08/26 23:01:38;;;;;;;11.02;8.13;;;;;;;;;;10424638;28;20300;-79
2022/08/26 23:06:39;;;;;;;12.15;7.85;;;;;;;;;;10425613;28;20049;-79
2022/08/26 23:11:41;;;;;;;10.40;7.88;;;;;;;;;;10408725;28;20452;-78
2022/08/26 23:16:43;;;;;;;11.02;7.45;;;;;;;;;;10419496;28;20055;-79
2022/08/26 23:21:43;;;;;;;9.32;7.35;;;;;;;;;;10425247;28;20123;-79
2022/08/26 23:26:44;;;;;;;11.47;8.53;;;;;;;;;;10418177;28;20117;-78
2022/08/26 23:31:44;;;;;;;9.93;7.57;;;;;;;;;;10419393;28;20090;-77
2022/08/26 23:36:44;;;;;;;10.60;7.20;;;;;;;;;;10404062;28;20463;-78
2022/08/26 23:41:45;;;;;;;8.85;6.88;;;;;;;;;;10413618;28;20048;-78
2022/08/26 23:46:45;;;;;;;11.07;7.77;;;;;;;;;;10400979;28;20452;-77
2022/08/26 23:57:04;;;;;;;9.95;8.05;;;;;;;;;;10412458;28;20037;-78
